Terminal Aerodrome Forecast
Issued by NWS North Platte, NE

Home | Current Version | Previous Version | Graphics & Text | Print | Product List | Glossary On
Versions: 1 2 3 4 5 6 7 8 9 10 11 12 13 14 15 16 17 18 19
000
FTUS43 KLBF 271100
TAFVTN
TAF
KVTN 271121Z 2712/2812 19010KT P6SM OVC060
      TEMPO 2712/2714 6SM -RASN BKN012 OVC040
     FM272000 27010KT P6SM SCT020 OVC060
     FM272200 32012G18KT P6SM BKN120
     FM280000 29005KT P6SM BKN100=

USA.gov is the U.S. government's official web portal to all federal, state and local government web resources and services.